createdAt,value
2023-04-27T00:00:48.815Z,7.90
2023-04-27T00:03:16.052Z,11.77
2023-04-27T00:05:44.221Z,7.30
2023-04-27T00:08:11.229Z,7.50
2023-04-27T00:10:37.943Z,6.67
2023-04-27T00:13:04.782Z,7.20
2023-04-27T00:15:31.639Z,7.27
2023-04-27T00:17:58.481Z,8.10
2023-04-27T00:20:25.467Z,7.50
2023-04-27T00:22:52.325Z,8.27
2023-04-27T00:25:19.117Z,8.37
2023-04-27T00:27:45.943Z,7.43
2023-04-27T00:30:12.798Z,7.03
2023-04-27T00:32:39.689Z,9.20
2023-04-27T00:35:07.126Z,8.33
2023-04-27T00:37:33.967Z,7.60
2023-04-27T00:40:01.313Z,8.73
2023-04-27T00:42:28.068Z,7.33
2023-04-27T00:44:57.954Z,9.03
2023-04-27T00:47:25.127Z,9.00
2023-04-27T00:49:52.157Z,7.10
2023-04-27T00:52:19.372Z,8.77
2023-04-27T00:54:48.485Z,6.00
2023-04-27T00:57:15.242Z,6.60
2023-04-27T00:59:41.997Z,7.07
2023-04-27T01:02:10.723Z,6.67
2023-04-27T01:04:37.771Z,8.63
2023-04-27T01:07:04.672Z,6.37
2023-04-27T01:09:31.348Z,7.77
2023-04-27T01:11:58.535Z,6.93
2023-04-27T01:14:25.324Z,8.70
2023-04-27T01:16:52.407Z,6.67
2023-04-27T01:19:19.182Z,6.97
2023-04-27T01:21:46.665Z,7.13
2023-04-27T01:24:13.479Z,8.43
2023-04-27T01:26:40.241Z,6.93
2023-04-27T01:29:07.078Z,6.23
2023-04-27T01:31:33.927Z,5.60
2023-04-27T01:34:00.723Z,5.93
2023-04-27T01:36:27.836Z,6.63
2023-04-27T01:38:54.650Z,6.27
2023-04-27T01:41:21.448Z,7.17
2023-04-27T01:43:48.163Z,7.80
2023-04-27T01:46:15.952Z,6.73
2023-04-27T01:48:42.900Z,6.20
2023-04-27T01:51:09.783Z,7.13
2023-04-27T01:53:36.560Z,6.77
2023-04-27T01:56:03.806Z,6.00
2023-04-27T01:58:30.619Z,6.73
2023-04-27T02:00:57.332Z,5.50
2023-04-27T02:03:24.190Z,5.93
2023-04-27T02:05:51.112Z,6.27
2023-04-27T02:08:18.069Z,6.10
2023-04-27T02:10:44.951Z,5.70
2023-04-27T02:13:11.858Z,6.20
2023-04-27T02:15:38.733Z,6.43
2023-04-27T02:18:05.760Z,5.90
2023-04-27T02:20:33.554Z,5.90
2023-04-27T02:23:01.124Z,6.27
2023-04-27T02:25:28.303Z,8.20
2023-04-27T02:27:55.661Z,6.23
2023-04-27T02:30:23.189Z,6.00
2023-04-27T02:32:50.485Z,6.20
2023-04-27T02:35:17.265Z,8.07
2023-04-27T02:37:44.111Z,6.70
2023-04-27T02:40:11.409Z,6.60
2023-04-27T02:42:39.095Z,6.00
2023-04-27T02:45:07.640Z,7.50
2023-04-27T02:47:35.475Z,7.00
2023-04-27T02:50:02.750Z,7.00
2023-04-27T02:52:29.579Z,8.73
2023-04-27T02:54:56.418Z,7.00
2023-04-27T02:57:23.271Z,8.13
2023-04-27T02:59:50.055Z,8.10
2023-04-27T03:02:16.861Z,6.20
2023-04-27T03:04:43.825Z,5.60
2023-04-27T03:07:12.025Z,6.20
2023-04-27T03:09:38.917Z,6.83
2023-04-27T03:12:05.932Z,7.10
2023-04-27T03:14:32.813Z,6.17
2023-04-27T03:17:00.647Z,6.13
2023-04-27T03:19:27.606Z,7.27
2023-04-27T03:21:54.450Z,8.20
2023-04-27T03:24:21.909Z,6.67
2023-04-27T03:26:48.741Z,7.07
2023-04-27T03:29:15.845Z,7.23
2023-04-27T03:31:42.837Z,7.00
2023-04-27T03:34:09.622Z,7.00
2023-04-27T03:36:36.593Z,6.97
2023-04-27T03:39:03.727Z,7.63
2023-04-27T03:41:30.495Z,6.93
2023-04-27T03:43:57.291Z,7.40
2023-04-27T03:46:24.153Z,6.13
2023-04-27T03:48:50.970Z,6.70
2023-04-27T03:51:18.401Z,6.70
2023-04-27T03:53:45.191Z,6.47
2023-04-27T03:56:12.099Z,8.17
2023-04-27T03:58:39.056Z,7.23
2023-04-27T04:01:06.441Z,7.17
2023-04-27T04:03:33.424Z,8.70
2023-04-27T04:06:00.200Z,6.57
2023-04-27T04:08:26.894Z,6.70
2023-04-27T04:10:53.688Z,6.40
2023-04-27T04:13:20.664Z,7.13
2023-04-27T04:15:47.431Z,7.57
2023-04-27T04:18:14.251Z,7.03
2023-04-27T04:20:41.777Z,6.37
2023-04-27T04:23:08.595Z,7.70
2023-04-27T04:25:35.352Z,7.77
2023-04-27T04:28:02.053Z,7.43
2023-04-27T04:30:28.903Z,6.50
2023-04-27T04:32:55.760Z,6.83
2023-04-27T04:35:22.627Z,7.23
2023-04-27T04:37:49.470Z,8.00
2023-04-27T04:40:16.677Z,7.97
2023-04-27T04:42:43.417Z,6.83
2023-04-27T04:45:10.815Z,6.87
2023-04-27T04:47:37.631Z,7.37
2023-04-27T04:50:04.717Z,8.33
2023-04-27T04:52:31.497Z,7.37
2023-04-27T04:54:58.205Z,6.43
2023-04-27T04:57:24.947Z,8.30
2023-04-27T04:59:51.637Z,8.07
2023-04-27T05:02:18.555Z,7.70
2023-04-27T05:04:45.787Z,9.23
2023-04-27T05:07:14.884Z,8.33
2023-04-27T05:09:42.405Z,7.77
2023-04-27T05:12:09.493Z,9.00
2023-04-27T05:14:36.271Z,9.13
2023-04-27T05:17:03.160Z,9.00
2023-04-27T05:19:31.369Z,9.40
2023-04-27T05:22:01.202Z,8.33
2023-04-27T05:24:28.226Z,8.00
2023-04-27T05:26:55.161Z,8.37
2023-04-27T05:29:22.582Z,8.30
2023-04-27T05:31:49.625Z,9.03
2023-04-27T05:34:16.912Z,8.00
2023-04-27T05:36:43.888Z,8.70
2023-04-27T05:39:10.704Z,7.00
2023-04-27T05:41:37.464Z,8.30
2023-04-27T05:44:04.271Z,8.57
2023-04-27T05:46:31.234Z,8.63
2023-04-27T05:48:58.027Z,9.40
2023-04-27T05:51:25.012Z,7.47
2023-04-27T05:53:55.235Z,11.33
2023-04-27T05:56:22.328Z,12.43
2023-04-27T05:58:49.135Z,8.87
2023-04-27T06:01:16.154Z,9.73
2023-04-27T06:03:43.086Z,8.50
2023-04-27T06:06:10.210Z,8.57
2023-04-27T06:08:39.395Z,9.23
2023-04-27T06:11:06.656Z,9.10
2023-04-27T06:13:33.783Z,8.33
2023-04-27T06:16:01.227Z,8.87
2023-04-27T06:18:28.069Z,8.27
2023-04-27T06:21:02.234Z,9.73
2023-04-27T06:23:29.605Z,8.73
2023-04-27T06:25:56.433Z,10.10
2023-04-27T06:28:23.408Z,9.07
2023-04-27T06:30:50.156Z,9.10
2023-04-27T06:33:17.012Z,8.50
2023-04-27T06:35:47.046Z,8.20
2023-04-27T06:38:14.180Z,8.33
2023-04-27T06:40:40.970Z,8.90
2023-04-27T06:43:07.758Z,9.00
2023-04-27T06:45:34.482Z,7.93
2023-04-27T06:48:01.454Z,8.97
2023-04-27T06:50:29.235Z,9.23
2023-04-27T06:52:56.028Z,10.50
2023-04-27T06:55:22.791Z,7.90
2023-04-27T06:57:49.508Z,8.77
2023-04-27T07:00:16.648Z,9.53
2023-04-27T07:02:43.849Z,9.37
2023-04-27T07:05:10.893Z,9.45
2023-04-27T07:07:37.778Z,8.90
2023-04-27T07:10:04.864Z,10.43
2023-04-27T07:12:31.677Z,8.43
2023-04-27T07:14:58.444Z,10.27
2023-04-27T07:17:25.304Z,8.23
2023-04-27T07:19:52.103Z,9.37
2023-04-27T07:22:20.017Z,9.60
2023-04-27T07:24:46.769Z,9.97
2023-04-27T07:27:14.992Z,8.80
2023-04-27T07:29:42.401Z,9.53
2023-04-27T07:32:09.406Z,10.57
2023-04-27T07:34:49.000Z,8.70
2023-04-27T07:37:19.810Z,8.23
2023-04-27T07:39:47.350Z,10.20
2023-04-27T07:42:15.303Z,11.30
2023-04-27T07:44:42.645Z,9.13
2023-04-27T07:47:10.111Z,8.53
2023-04-27T07:49:37.549Z,8.60
2023-04-27T07:52:04.786Z,8.93
2023-04-27T07:54:31.631Z,8.60
2023-04-27T07:56:58.578Z,9.00
2023-04-27T07:59:28.504Z,10.07
2023-04-27T08:01:59.435Z,10.73
2023-04-27T08:04:34.430Z,9.50
2023-04-27T08:07:01.670Z,9.07
2023-04-27T08:09:29.094Z,8.20
2023-04-27T08:11:57.355Z,8.53
2023-04-27T08:14:24.123Z,8.50
2023-04-27T08:16:52.176Z,7.70
2023-04-27T08:19:19.046Z,6.80
2023-04-27T08:21:45.971Z,8.83
2023-04-27T08:24:12.773Z,7.23
2023-04-27T08:26:41.449Z,7.33
2023-04-27T08:29:19.241Z,5.50
2023-04-27T08:31:47.521Z,6.37
2023-04-27T08:34:14.368Z,6.00
2023-04-27T08:36:41.227Z,6.70
2023-04-27T08:39:09.003Z,6.27
2023-04-27T08:41:35.730Z,5.53
2023-04-27T08:44:02.538Z,6.73
2023-04-27T08:46:29.933Z,6.40
2023-04-27T08:48:56.978Z,7.70
2023-04-27T08:51:25.553Z,5.00
2023-04-27T08:53:54.338Z,5.20
2023-04-27T08:56:25.165Z,4.63
2023-04-27T08:58:52.465Z,4.43
2023-04-27T09:01:19.918Z,4.50
2023-04-27T09:03:47.684Z,5.70
2023-04-27T09:06:15.353Z,5.43
2023-04-27T09:08:43.082Z,4.63
2023-04-27T09:11:09.803Z,6.80
2023-04-27T09:13:41.982Z,4.83
2023-04-27T09:16:09.192Z,4.20
2023-04-27T09:18:37.982Z,6.63
2023-04-27T09:21:05.187Z,4.83
2023-04-27T09:23:33.628Z,4.57
2023-04-27T09:26:08.343Z,4.60
2023-04-27T09:28:40.473Z,5.37
2023-04-27T09:31:09.485Z,5.90
2023-04-27T09:33:36.684Z,5.80
2023-04-27T09:36:07.163Z,5.97
2023-04-27T09:38:34.387Z,5.80
2023-04-27T09:41:01.549Z,4.47
2023-04-27T09:43:29.942Z,6.07
2023-04-27T09:45:57.653Z,6.10
2023-04-27T09:48:25.707Z,7.90
2023-04-27T09:50:53.143Z,4.90
2023-04-27T09:53:24.723Z,4.97
2023-04-27T09:56:17.324Z,6.30
2023-04-27T09:58:53.063Z,6.80
2023-04-27T10:01:19.790Z,5.30
2023-04-27T10:03:59.121Z,5.23
2023-04-27T10:06:52.139Z,5.60
2023-04-27T10:09:25.418Z,6.90
2023-04-27T10:11:53.880Z,6.10
2023-04-27T10:14:22.754Z,5.87
2023-04-27T10:16:53.557Z,6.70
2023-04-27T10:19:24.624Z,5.80
2023-04-27T10:22:17.140Z,5.97
2023-04-27T10:24:49.538Z,6.40
2023-04-27T10:27:20.065Z,6.43
2023-04-27T10:29:48.039Z,6.60
2023-04-27T10:32:24.073Z,6.17
2023-04-27T10:35:08.100Z,8.80
2023-04-27T10:37:42.172Z,7.87
2023-04-27T10:40:10.674Z,6.50
2023-04-27T10:42:37.511Z,6.50
2023-04-27T10:45:04.570Z,5.77
2023-04-27T10:47:45.462Z,7.07
2023-04-27T10:50:13.770Z,8.47
2023-04-27T10:52:46.913Z,7.00
2023-04-27T10:55:20.096Z,5.50
2023-04-27T10:57:51.900Z,7.20
2023-04-27T11:00:37.676Z,6.20
2023-04-27T11:03:11.629Z,7.73
2023-04-27T11:05:38.760Z,6.27
2023-04-27T11:08:10.505Z,6.57
2023-04-27T11:10:49.874Z,5.60
2023-04-27T11:13:17.700Z,5.73
2023-04-27T11:15:49.018Z,5.50
2023-04-27T11:18:17.718Z,5.70
2023-04-27T11:20:50.561Z,7.87
2023-04-27T11:23:28.947Z,5.20
2023-04-27T11:25:56.869Z,6.27
2023-04-27T11:28:24.437Z,9.00
2023-04-27T11:30:58.621Z,7.37
2023-04-27T11:33:26.423Z,6.77
2023-04-27T11:35:53.468Z,5.20
2023-04-27T11:38:21.860Z,5.70
2023-04-27T11:41:06.295Z,6.57
2023-04-27T11:43:33.620Z,5.33
2023-04-27T11:46:11.108Z,9.70
2023-04-27T11:48:38.768Z,5.80
2023-04-27T11:51:06.989Z,7.63
2023-04-27T11:53:38.327Z,7.47
2023-04-27T11:56:10.781Z,5.13
2023-04-27T11:58:39.267Z,5.17
2023-04-27T12:01:07.515Z,6.83
2023-04-27T12:03:35.380Z,8.03
2023-04-27T12:08:32.273Z,5.50
2023-04-27T12:10:59.164Z,6.30
2023-04-27T12:13:25.921Z,4.13
2023-04-27T12:15:52.683Z,5.37
2023-04-27T12:18:19.411Z,9.90
2023-04-27T12:20:46.518Z,5.40
2023-04-27T12:23:13.333Z,5.57
2023-04-27T12:25:41.206Z,5.47
2023-04-27T12:28:08.097Z,4.60
2023-04-27T12:30:35.115Z,8.30
2023-04-27T12:33:02.364Z,6.20
2023-04-27T12:35:31.929Z,6.70
2023-04-27T12:37:58.922Z,6.20
2023-04-27T12:40:25.951Z,6.07
2023-04-27T12:42:53.249Z,5.87
2023-04-27T12:45:20.092Z,7.07
2023-04-27T12:48:01.837Z,6.30
2023-04-27T12:50:31.654Z,8.17
2023-04-27T12:52:58.462Z,6.57
2023-04-27T12:57:58.378Z,10.97
2023-04-27T13:00:25.586Z,6.60
2023-04-27T13:02:52.892Z,6.10
2023-04-27T13:05:21.031Z,8.80
2023-04-27T13:07:48.254Z,7.30
2023-04-27T13:10:15.151Z,7.13
2023-04-27T13:12:42.080Z,7.00
2023-04-27T13:15:10.110Z,7.03
2023-04-27T13:17:37.085Z,6.73
2023-04-27T13:20:04.247Z,9.07
2023-04-27T13:22:31.001Z,5.50
2023-04-27T13:24:58.124Z,6.33
2023-04-27T13:27:28.317Z,5.83
2023-04-27T13:29:55.148Z,5.50
2023-04-27T13:32:22.556Z,7.20
2023-04-27T13:34:49.525Z,5.90
2023-04-27T13:37:16.675Z,6.27
2023-04-27T13:39:43.364Z,6.87
2023-04-27T13:42:10.233Z,6.20
2023-04-27T13:44:37.017Z,5.73
2023-04-27T13:47:03.968Z,4.87
2023-04-27T13:49:30.936Z,6.60
2023-04-27T13:51:58.690Z,6.30
2023-04-27T13:54:25.851Z,5.83
2023-04-27T13:56:52.618Z,7.00
2023-04-27T13:59:19.318Z,7.63
2023-04-27T14:01:46.156Z,6.40
2023-04-27T14:04:13.154Z,6.13
2023-04-27T14:06:39.969Z,6.77
2023-04-27T14:09:07.021Z,5.97
2023-04-27T14:11:42.069Z,5.10
2023-04-27T14:14:16.012Z,6.77
2023-04-27T14:16:43.312Z,11.50
2023-04-27T14:19:10.551Z,4.63
2023-04-27T14:21:37.290Z,4.67
2023-04-27T14:24:04.154Z,4.97
2023-04-27T14:26:31.008Z,5.93
2023-04-27T14:28:58.742Z,5.80
2023-04-27T14:31:26.509Z,6.23
2023-04-27T14:33:53.421Z,5.60
2023-04-27T14:36:20.349Z,4.10
2023-04-27T14:38:47.421Z,4.83
2023-04-27T14:41:14.174Z,7.50
2023-04-27T14:43:41.821Z,5.20
2023-04-27T14:46:19.595Z,6.87
2023-04-27T14:48:47.917Z,5.00
2023-04-27T14:51:15.934Z,5.50
2023-04-27T14:53:44.062Z,4.13
2023-04-27T14:56:11.229Z,15.43
2023-04-27T14:58:38.626Z,6.27
2023-04-27T15:01:06.100Z,7.27
2023-04-27T15:03:33.320Z,4.43
2023-04-27T15:06:01.238Z,5.00
2023-04-27T15:08:28.368Z,4.67
2023-04-27T15:10:57.925Z,4.63
2023-04-27T15:13:24.820Z,5.17
2023-04-27T15:15:56.147Z,4.90
2023-04-27T15:18:23.840Z,3.97
2023-04-27T15:20:56.977Z,4.20
2023-04-27T15:23:24.767Z,4.50
2023-04-27T15:25:54.846Z,6.30
2023-04-27T15:28:21.736Z,6.20
2023-04-27T15:30:49.052Z,4.80
2023-04-27T15:33:16.570Z,6.17
2023-04-27T15:35:43.363Z,6.90
2023-04-27T15:38:12.622Z,6.93
2023-04-27T15:40:39.897Z,6.30
2023-04-27T15:43:06.926Z,5.37
2023-04-27T15:45:33.772Z,7.80
2023-04-27T15:48:00.810Z,6.77
2023-04-27T15:50:27.563Z,5.60
2023-04-27T15:52:54.268Z,5.27
2023-04-27T15:55:22.900Z,6.80
2023-04-27T15:57:50.404Z,4.90
2023-04-27T16:00:18.910Z,4.43
2023-04-27T16:02:46.403Z,4.93
2023-04-27T16:05:13.908Z,7.07
2023-04-27T16:07:43.386Z,6.40
2023-04-27T16:10:11.255Z,13.00
2023-04-27T16:12:38.311Z,9.73
2023-04-27T16:15:06.090Z,7.20
2023-04-27T16:17:37.646Z,13.03
2023-04-27T16:20:08.075Z,6.83
2023-04-27T16:22:35.722Z,10.40
2023-04-27T16:25:03.860Z,6.10
2023-04-27T16:27:30.920Z,4.00
2023-04-27T16:29:57.757Z,5.30
2023-04-27T16:32:24.742Z,4.47
2023-04-27T16:34:51.569Z,6.60
2023-04-27T16:37:18.310Z,4.70
2023-04-27T16:39:45.344Z,7.00
2023-04-27T16:42:16.264Z,7.80
2023-04-27T16:44:43.043Z,4.97
2023-04-27T16:47:09.749Z,5.97
2023-04-27T16:49:37.700Z,7.23
2023-04-27T16:52:04.801Z,5.00
2023-04-27T16:54:31.679Z,5.40
2023-04-27T16:56:58.454Z,4.80
2023-04-27T16:59:25.207Z,10.13
2023-04-27T17:01:52.205Z,4.40
2023-04-27T17:04:19.238Z,5.17
2023-04-27T17:06:47.942Z,4.37
2023-04-27T17:09:15.200Z,6.50
2023-04-27T17:11:42.418Z,3.20
2023-04-27T17:14:09.158Z,5.33
2023-04-27T17:16:35.933Z,4.50
2023-04-27T17:19:02.625Z,4.57
2023-04-27T17:21:29.397Z,5.57
2023-04-27T17:23:56.231Z,4.50
2023-04-27T17:26:23.056Z,5.27
2023-04-27T17:28:49.890Z,5.03
2023-04-27T17:31:19.635Z,8.40
2023-04-27T17:33:46.462Z,6.07
2023-04-27T17:36:14.883Z,6.37
2023-04-27T17:38:41.794Z,4.73
2023-04-27T17:41:08.543Z,6.40
2023-04-27T17:43:37.528Z,6.90
2023-04-27T17:46:11.083Z,7.17
2023-04-27T17:48:37.984Z,8.13
2023-04-27T17:51:04.822Z,4.70
2023-04-27T17:53:31.638Z,4.80
2023-04-27T17:55:58.475Z,5.50
2023-04-27T17:58:25.637Z,4.60
2023-04-27T18:00:52.610Z,6.30
2023-04-27T18:03:22.597Z,4.17
2023-04-27T18:05:51.831Z,6.60
2023-04-27T18:08:21.248Z,4.23
2023-04-27T18:10:48.090Z,10.50
2023-04-27T18:13:18.477Z,5.40
2023-04-27T18:15:45.166Z,6.13
2023-04-27T18:18:19.890Z,7.90
2023-04-27T18:20:47.690Z,4.50
2023-04-27T18:23:33.755Z,6.83
2023-04-27T18:26:13.214Z,5.90
2023-04-27T18:28:41.781Z,6.20
2023-04-27T18:31:18.402Z,5.70
2023-04-27T18:33:45.873Z,7.03
2023-04-27T18:36:12.968Z,5.00
2023-04-27T18:38:39.873Z,7.10
2023-04-27T18:41:07.995Z,7.10
2023-04-27T18:43:36.688Z,4.80
2023-04-27T18:46:04.587Z,4.40
2023-04-27T18:48:32.268Z,5.70
2023-04-27T18:50:59.157Z,6.43
2023-04-27T18:53:27.261Z,5.50
2023-04-27T18:55:54.138Z,3.70
2023-04-27T18:58:22.268Z,7.60
2023-04-27T19:00:49.169Z,7.03
2023-04-27T19:03:16.596Z,7.80
2023-04-27T19:05:43.943Z,7.30
2023-04-27T19:08:11.285Z,7.97
2023-04-27T19:10:41.112Z,7.27
2023-04-27T19:13:08.076Z,9.33
2023-04-27T19:15:34.842Z,7.70
2023-04-27T19:18:09.313Z,9.10
2023-04-27T19:20:37.579Z,7.03
2023-04-27T19:23:05.186Z,6.77
2023-04-27T19:25:34.569Z,8.57
2023-04-27T19:28:01.371Z,9.90
2023-04-27T19:30:28.222Z,8.90
2023-04-27T19:32:55.123Z,10.10
2023-04-27T19:35:23.922Z,9.23
2023-04-27T19:37:51.220Z,7.73
2023-04-27T19:40:18.376Z,8.67
2023-04-27T19:42:45.497Z,12.70
2023-04-27T19:45:12.557Z,10.50
2023-04-27T19:47:39.584Z,8.50
2023-04-27T19:50:07.449Z,9.50
2023-04-27T19:52:34.574Z,14.17
2023-04-27T19:55:01.499Z,9.93
2023-04-27T19:57:28.474Z,10.67
2023-04-27T19:59:55.414Z,19.30
2023-04-27T20:02:22.788Z,29.50
2023-04-27T20:04:50.113Z,50.23
2023-04-27T20:07:17.166Z,66.77
2023-04-27T20:09:43.965Z,46.97
2023-04-27T20:12:23.694Z,59.47
2023-04-27T20:14:57.766Z,48.90
2023-04-27T20:17:27.632Z,34.60
2023-04-27T20:20:02.496Z,22.00
2023-04-27T20:22:29.363Z,15.50
2023-04-27T20:24:59.343Z,15.27
2023-04-27T20:27:26.285Z,8.70
2023-04-27T20:29:53.230Z,8.20
2023-04-27T20:32:20.144Z,8.23
2023-04-27T20:34:47.082Z,8.13
2023-04-27T20:37:13.814Z,8.60
2023-04-27T20:39:41.552Z,8.30
2023-04-27T20:42:18.487Z,8.03
2023-04-27T20:44:48.560Z,8.00
2023-04-27T20:47:15.551Z,9.13
2023-04-27T20:49:42.525Z,9.50
2023-04-27T20:52:09.297Z,10.00
2023-04-27T20:54:39.698Z,7.90
2023-04-27T20:57:11.016Z,7.43
2023-04-27T20:59:37.781Z,7.97
2023-04-27T21:02:04.594Z,14.07
2023-04-27T21:04:33.341Z,10.10
2023-04-27T21:07:10.897Z,9.53
2023-04-27T21:09:38.957Z,8.73
2023-04-27T21:12:06.615Z,8.10
2023-04-27T21:14:34.556Z,8.73
2023-04-27T21:17:01.536Z,8.10
2023-04-27T21:19:28.477Z,7.73
2023-04-27T21:21:55.493Z,12.13
2023-04-27T21:24:22.502Z,8.57
2023-04-27T21:26:49.645Z,10.03
2023-04-27T21:29:16.477Z,8.47
2023-04-27T21:31:44.534Z,7.80
2023-04-27T21:34:11.738Z,8.03
2023-04-27T21:36:38.544Z,9.00
2023-04-27T21:39:06.411Z,8.83
2023-04-27T21:41:34.774Z,8.20
2023-04-27T21:44:01.600Z,8.37
2023-04-27T21:46:28.391Z,9.77
2023-04-27T21:48:55.313Z,8.87
2023-04-27T21:51:22.449Z,11.57
2023-04-27T21:53:49.232Z,10.63
2023-04-27T21:56:16.207Z,9.17
2023-04-27T21:58:43.060Z,8.80
2023-04-27T22:01:11.221Z,8.43
2023-04-27T22:03:38.316Z,9.90
2023-04-27T22:06:06.339Z,9.07
2023-04-27T22:08:33.251Z,9.67
2023-04-27T22:11:00.192Z,8.70
2023-04-27T22:13:27.121Z,8.53
2023-04-27T22:15:53.930Z,8.73
2023-04-27T22:18:20.773Z,9.50
2023-04-27T22:20:47.529Z,8.37
2023-04-27T22:23:14.413Z,7.13
2023-04-27T22:25:43.085Z,10.07
2023-04-27T22:28:10.855Z,8.87
2023-04-27T22:30:39.125Z,7.23
2023-04-27T22:33:06.358Z,7.97
2023-04-27T22:35:34.122Z,8.13
2023-04-27T22:38:01.042Z,8.03
2023-04-27T22:40:27.968Z,8.10
2023-04-27T22:42:55.482Z,8.30
2023-04-27T22:45:23.224Z,9.13
2023-04-27T22:47:50.359Z,8.23
2023-04-27T22:50:17.256Z,8.37
2023-04-27T22:52:44.356Z,8.33
2023-04-27T22:55:12.286Z,7.80
2023-04-27T22:57:39.487Z,10.10
2023-04-27T23:00:09.267Z,8.90
2023-04-27T23:02:36.245Z,8.33
2023-04-27T23:05:03.913Z,9.90
2023-04-27T23:07:30.694Z,7.57
2023-04-27T23:09:57.496Z,8.90
2023-04-27T23:12:26.696Z,12.30
2023-04-27T23:14:53.555Z,8.97
2023-04-27T23:17:22.773Z,11.00
2023-04-27T23:19:49.849Z,8.40
2023-04-27T23:22:16.781Z,8.80
2023-04-27T23:24:43.539Z,10.87
2023-04-27T23:27:10.283Z,8.90
2023-04-27T23:29:37.115Z,9.33
2023-04-27T23:32:04.593Z,10.17
2023-04-27T23:34:34.181Z,9.47
2023-04-27T23:37:01.128Z,9.13
2023-04-27T23:39:28.576Z,9.50
2023-04-27T23:41:55.357Z,9.07
2023-04-27T23:44:22.399Z,9.07
2023-04-27T23:46:49.215Z,9.10
2023-04-27T23:49:16.073Z,8.83
2023-04-27T23:51:42.923Z,9.47
2023-04-27T23:54:09.893Z,8.47
2023-04-27T23:56:36.811Z,8.23
2023-04-27T23:59:03.531Z,11.00
